Time;durP1;ratioP1;P1;durP2;ratioP2;P2;SDS_P1;SDS_P2;PMS_P1;PMS_P2;Temp;Humidity;BMP_temperature;BMP_pressure;BME280_temperature;BME280_humidity;BME280_pressure;Samples;Min_cycle;Max_cycle;Signal;HPM_P1;HPM_P2
2022/05/21 00:01:06;;;;;;;9.88;4.47;;;;;;;16.62;100.00;100528.13;1664240;85;21096;-62
2022/05/21 00:03:34;;;;;;;7.28;4.42;;;;;;;16.52;100.00;100517.52;1664536;85;21103;-61
2022/05/21 00:06:01;;;;;;;8.18;4.37;;;;;;;16.60;100.00;100517.82;1664550;86;21044;-61
2022/05/21 00:08:28;;;;;;;6.03;4.35;;;;;;;16.62;100.00;100525.05;1664258;86;21060;-61
2022/05/21 00:10:56;;;;;;;7.00;4.17;;;;;;;16.63;100.00;100522.82;1664428;86;21052;-62
2022/05/21 00:13:25;;;;;;;7.67;3.85;;;;;;;16.64;100.00;100506.75;1664171;86;21099;-61
2022/05/21 00:15:52;;;;;;;11.78;4.30;;;;;;;16.58;100.00;100519.70;1664406;85;21066;-61
2022/05/21 00:18:20;;;;;;;9.50;4.25;;;;;;;16.67;100.00;100514.83;1669553;84;21097;-61
2022/05/21 00:20:47;;;;;;;7.60;4.22;;;;;;;16.66;100.00;100510.55;1663713;85;21067;-61
2022/05/21 00:23:29;;;;;;;9.85;4.37;;;;;;;16.67;100.00;100514.83;1674154;86;21091;-61
2022/05/21 00:26:09;;;;;;;6.80;4.08;;;;;;;16.56;100.00;100504.67;1673892;86;21043;-61
2022/05/21 00:28:39;;;;;;;7.33;4.28;;;;;;;16.56;99.91;100507.28;1674883;86;21012;-61
2022/05/21 00:31:11;;;;;;;8.30;4.25;;;;;;;16.55;98.39;100507.41;1674516;85;21032;-61
2022/05/21 00:33:40;;;;;;;9.90;4.62;;;;;;;16.57;97.57;100492.06;1674862;86;21066;-61
2022/05/21 00:36:08;;;;;;;6.25;4.30;;;;;;;16.62;98.38;100495.63;1673938;85;21143;-61
2022/05/21 00:38:36;;;;;;;9.08;4.05;;;;;;;16.57;99.63;100493.36;1674436;86;21528;-61
2022/05/21 00:41:06;;;;;;;7.53;4.17;;;;;;;16.53;100.00;100484.59;1674379;85;21063;-61
2022/05/21 00:43:47;;;;;;;10.48;4.40;;;;;;;16.52;100.00;100481.14;1674508;85;21115;-61
2022/05/21 00:46:22;;;;;;;9.53;4.47;;;;;;;16.54;97.95;100479.27;1674808;86;21130;-61
2022/05/21 00:48:57;;;;;;;9.75;5.15;;;;;;;16.52;97.34;100479.02;1674672;86;21055;-61
2022/05/21 00:51:30;;;;;;;8.53;5.03;;;;;;;16.51;95.57;100476.08;1674903;85;21591;-61
2022/05/21 00:54:00;;;;;;;7.92;4.70;;;;;;;16.51;95.78;100471.70;1674800;86;21070;-61
2022/05/21 00:56:30;;;;;;;9.50;5.08;;;;;;;16.48;96.22;100464.10;1674497;86;21049;-61
2022/05/21 00:59:59;;;;;;;10.72;5.20;;;;;;;16.48;95.68;100462.80;1674843;85;21563;-61
2022/05/21 01:01:42;;;;;;;12.23;5.00;;;;;;;17.37;90.70;100456.48;1678650;84;21038;-61
2022/05/21 01:04:09;;;;;;;9.70;4.65;;;;;;;16.53;94.68;100455.53;1697131;83;21082;-61
2022/05/21 01:06:37;;;;;;;9.93;4.95;;;;;;;16.51;95.74;100453.52;1697222;84;21072;-62
2022/05/21 01:09:06;;;;;;;7.92;4.65;;;;;;;16.46;95.94;100445.67;1696920;83;21093;-61
2022/05/21 01:11:37;;;;;;;9.38;4.55;;;;;;;16.45;95.95;100443.55;1663883;86;21028;-62
2022/05/21 01:14:08;;;;;;;10.50;5.20;;;;;;;16.40;96.00;100442.58;1674503;86;21098;-62
2022/05/21 01:16:36;;;;;;;8.95;4.80;;;;;;;16.35;97.28;100429.54;1674698;85;21055;-61
2022/05/21 01:19:09;;;;;;;11.15;4.62;;;;;;;16.36;98.25;100432.48;1674706;84;21670;-61
2022/05/21 01:21:38;;;;;;;8.08;4.37;;;;;;;16.34;97.78;100425.27;1674423;85;21036;-61
2022/05/21 01:24:07;;;;;;;8.53;4.80;;;;;;;16.32;97.40;100424.55;1674259;86;21567;-61
2022/05/21 01:26:36;;;;;;;8.55;4.50;;;;;;;16.33;97.54;100415.83;1674193;86;21040;-61
2022/05/21 01:29:09;;;;;;;10.58;4.47;;;;;;;16.28;96.45;100410.95;1674242;85;21035;-61
2022/05/21 01:31:37;;;;;;;10.35;4.08;;;;;;;16.29;96.70;100408.71;1674436;86;21070;-61
2022/05/21 01:34:05;;;;;;;9.28;4.20;;;;;;;16.34;95.34;100405.78;1674130;85;21047;-61
2022/05/21 01:36:32;;;;;;;8.05;4.30;;;;;;;16.35;94.97;100406.98;1674231;86;21067;-62
2022/05/21 01:39:01;;;;;;;9.28;4.17;;;;;;;16.33;94.42;100398.94;1674218;86;21004;-61
2022/05/21 01:41:28;;;;;;;9.98;4.30;;;;;;;16.34;95.50;100399.29;1674039;86;21048;-61
2022/05/21 01:46:42;;;;;;;8.95;3.50;;;;;;;16.28;95.66;100388.03;1674622;86;21104;-60
2022/05/21 01:49:11;;;;;;;8.13;4.33;;;;;;;16.25;96.81;100385.19;1674466;86;21068;-61
2022/05/21 01:51:38;;;;;;;6.55;3.87;;;;;;;16.23;96.94;100389.18;1674731;85;21584;-61
2022/05/21 01:54:06;;;;;;;5.22;3.83;;;;;;;16.18;98.39;100378.74;1674496;85;21531;-61
2022/05/21 01:56:34;;;;;;;8.75;3.85;;;;;;;16.17;98.22;100375.33;1674471;85;21103;-61
2022/05/21 01:59:01;;;;;;;7.62;4.10;;;;;;;16.12;98.52;100372.68;1674949;85;21088;-61
2022/05/21 02:01:28;;;;;;;7.47;4.10;;;;;;;16.04;99.74;100366.75;1674551;85;21071;-61
2022/05/21 02:03:56;;;;;;;6.37;3.90;;;;;;;15.94;100.00;100363.13;1674702;86;21067;-61
2022/05/21 02:06:23;;;;;;;6.87;3.87;;;;;;;15.84;100.00;100360.33;1674053;86;21040;-61
2022/05/21 02:08:50;;;;;;;7.95;4.03;;;;;;;15.77;100.00;100356.47;1674596;85;21106;-61
2022/05/21 02:11:17;;;;;;;8.20;3.72;;;;;;;15.73;100.00;100358.44;1674464;85;21119;-61
2022/05/21 02:13:46;;;;;;;8.43;4.00;;;;;;;15.67;100.00;100352.34;1674435;85;21095;-61
2022/05/21 02:16:13;;;;;;;8.73;3.67;;;;;;;15.65;100.00;100355.98;1674600;86;21067;-61
2022/05/21 02:18:40;;;;;;;9.10;3.62;;;;;;;15.62;100.00;100351.84;1673437;84;21047;-62
2022/05/21 02:21:07;;;;;;;8.75;3.98;;;;;;;15.62;100.00;100353.13;1664595;85;21119;-62
2022/05/21 02:23:36;;;;;;;11.90;4.22;;;;;;;15.62;100.00;100350.06;1664576;85;21040;-61
2022/05/21 02:26:03;;;;;;;7.28;3.80;;;;;;;15.64;100.00;100351.27;1664698;86;21064;-62
2022/05/21 02:28:31;;;;;;;10.05;3.67;;;;;;;15.66;100.00;100346.80;1664590;85;21126;-61
2022/05/21 02:30:58;;;;;;;7.25;3.77;;;;;;;15.70;100.00;100348.25;1664832;85;21091;-61
2022/05/21 02:33:26;;;;;;;8.70;3.52;;;;;;;15.74;100.00;100353.62;1664527;86;21104;-61
2022/05/21 02:35:55;;;;;;;9.90;3.80;;;;;;;15.74;100.00;100339.83;1664492;85;21556;-61
2022/05/21 02:41:16;;;;;;;8.20;3.60;;;;;;;15.85;100.00;100346.88;1664534;86;21067;-61
2022/05/21 02:43:46;;;;;;;6.22;3.98;;;;;;;15.89;100.00;100342.65;1664520;86;21056;-61
2022/05/21 02:46:15;;;;;;;6.75;4.10;;;;;;;15.94;100.00;100339.76;1643759;86;21051;-61
2022/05/21 02:48:42;;;;;;;7.65;3.70;;;;;;;16.03;100.00;100336.51;1664828;86;21100;-61
2022/05/21 02:51:11;;;;;;;7.58;3.77;;;;;;;16.11;100.00;100344.59;1664414;86;21060;-61
2022/05/21 02:53:39;;;;;;;9.70;3.70;;;;;;;16.20;100.00;100342.66;1664843;85;21516;-61
2022/05/21 02:56:11;;;;;;;6.10;3.50;;;;;;;16.25;100.00;100349.30;1664472;86;21052;-61
2022/05/21 02:58:38;;;;;;;7.62;3.37;;;;;;;16.27;100.00;100343.05;1664855;85;21036;-61
2022/05/21 03:01:06;;;;;;;8.15;3.30;;;;;;;16.38;100.00;100340.98;1664779;85;21056;-61
2022/05/21 03:03:34;;;;;;;6.95;3.15;;;;;;;16.52;100.00;100347.80;1664889;86;21056;-61
2022/05/21 03:06:01;;;;;;;5.87;3.55;;;;;;;16.64;100.00;100345.62;1664721;86;21029;-61
2022/05/21 03:11:15;;;;;;;7.58;3.50;;;;;;;16.90;100.00;100348.95;1664725;86;21112;-61
2022/05/21 03:13:42;;;;;;;7.58;3.98;;;;;;;17.04;100.00;100351.03;1664684;85;21100;-61
2022/05/21 03:16:10;;;;;;;9.95;3.60;;;;;;;17.09;100.00;100354.95;1664741;85;21104;-61
2022/05/21 03:18:38;;;;;;;6.22;3.40;;;;;;;17.17;99.72;100358.27;1664846;85;21076;-61
2022/05/21 03:21:05;;;;;;;5.97;3.30;;;;;;;17.25;99.39;100353.80;1694678;84;21089;-60
2022/05/21 03:23:33;;;;;;;5.92;3.27;;;;;;;17.24;98.07;100347.77;1664067;85;21087;-60
2022/05/21 03:26:00;;;;;;;9.78;3.67;;;;;;;17.19;98.23;100344.23;1674840;86;21099;-60
2022/05/21 03:28:28;;;;;;;8.45;3.52;;;;;;;17.28;97.67;100341.40;1674590;85;21131;-60
2022/05/21 03:30:56;;;;;;;6.55;3.90;;;;;;;17.24;98.04;100343.05;1674834;86;21169;-60
2022/05/21 03:33:23;;;;;;;9.80;3.72;;;;;;;17.25;98.39;100336.41;1674563;85;21551;-61
2022/05/21 03:35:50;;;;;;;7.47;3.50;;;;;;;17.21;98.03;100339.73;1674646;86;21051;-61
2022/05/21 03:38:19;;;;;;;9.93;4.25;;;;;;;17.18;98.33;100339.13;1674448;86;21097;-61
2022/05/21 03:40:47;;;;;;;7.70;3.92;;;;;;;17.24;97.15;100330.05;1674586;86;21568;-61
2022/05/21 03:43:14;;;;;;;10.13;4.25;;;;;;;17.23;97.64;100337.00;1647834;86;21079;-60
2022/05/21 03:45:42;;;;;;;8.55;3.72;;;;;;;17.24;97.19;100339.15;1674854;85;21535;-60
2022/05/21 03:48:10;;;;;;;10.23;4.17;;;;;;;17.28;97.53;100344.00;1674626;85;21062;-60
2022/05/21 03:50:39;;;;;;;13.93;3.80;;;;;;;17.30;97.92;100343.89;1674539;86;21052;-60
2022/05/21 03:53:06;;;;;;;8.40;3.75;;;;;;;17.35;97.59;100339.16;1674856;86;21588;-60
2022/05/21 03:55:33;;;;;;;10.23;4.25;;;;;;;17.38;96.35;100330.66;1681560;84;21043;-61
2022/05/21 03:58:01;;;;;;;9.15;3.67;;;;;;;17.42;96.60;100341.67;1686975;84;21035;-60
2022/05/21 04:00:28;;;;;;;9.65;4.10;;;;;;;17.36;97.29;100336.92;1688434;84;21035;-60
2022/05/21 04:02:57;;;;;;;10.23;4.00;;;;;;;17.48;97.28;100333.84;1689296;84;21098;-61
2022/05/21 04:05:24;;;;;;;8.05;3.83;;;;;;;17.45;98.18;100334.91;1689767;84;21020;-60
2022/05/21 04:07:51;;;;;;;11.10;4.30;;;;;;;17.45;97.39;100325.80;1688740;84;21083;-61
2022/05/21 04:10:20;;;;;;;9.70;4.05;;;;;;;17.42;97.54;100330.78;1686789;84;21583;-61
2022/05/21 04:12:47;;;;;;;7.67;3.50;;;;;;;17.42;97.97;100332.08;1688625;84;21046;-60
2022/05/21 04:15:15;;;;;;;9.28;4.53;;;;;;;17.55;98.48;100332.45;1689067;84;21123;-61
2022/05/21 04:17:43;;;;;;;8.58;4.00;;;;;;;17.71;97.66;100325.59;1686803;84;21039;-61
2022/05/21 04:20:14;;;;;;;10.13;3.80;;;;;;;17.74;98.70;100323.59;1688142;83;21121;-61
2022/05/21 04:22:43;;;;;;;9.05;3.98;;;;;;;17.83;97.45;100316.88;1689899;84;21030;-61
2022/05/21 04:25:11;;;;;;;12.30;4.10;;;;;;;17.99;96.67;100315.20;1688629;84;21031;-61
2022/05/21 04:27:40;;;;;;;7.53;4.20;;;;;;;17.95;96.91;100315.91;1686739;84;21091;-61
2022/05/21 04:30:12;;;;;;;9.90;4.20;;;;;;;18.08;96.70;100317.08;1688941;84;21571;-62
2022/05/21 04:32:39;;;;;;;10.70;4.03;;;;;;;18.20;94.67;100315.28;1689477;84;21047;-61
2022/05/21 04:35:08;;;;;;;9.25;4.17;;;;;;;18.30;94.76;100316.69;1688093;84;21048;-61
2022/05/21 04:37:38;;;;;;;6.70;3.98;;;;;;;18.38;95.10;100314.30;1686885;84;21542;-61
2022/05/21 04:40:10;;;;;;;7.33;4.00;;;;;;;18.44;94.49;100312.50;1689125;84;21571;-62
2022/05/21 04:42:37;;;;;;;7.28;4.15;;;;;;;18.56;93.60;100310.69;1689860;84;21039;-62
2022/05/21 04:45:07;;;;;;;12.40;3.95;;;;;;;18.61;91.55;100318.95;1687179;84;21088;-62
2022/05/21 04:47:35;;;;;;;9.63;4.40;;;;;;;18.73;91.22;100304.92;1687633;84;21604;-62
2022/05/21 04:50:04;;;;;;;7.53;3.62;;;;;;;19.07;90.28;100307.88;1689829;84;21047;-62
2022/05/21 04:52:31;;;;;;;10.08;4.15;;;;;;;19.12;88.54;100304.40;1688687;84;21036;-62
2022/05/21 04:55:00;;;;;;;8.55;4.03;;;;;;;19.38;87.15;100305.67;1686954;84;21480;-62
2022/05/21 04:57:27;;;;;;;13.15;4.15;;;;;;;19.63;86.15;100307.50;1688608;84;21051;-62
2022/05/21 04:59:54;;;;;;;12.88;3.90;;;;;;;19.83;83.57;100298.45;1689188;84;21067;-61
2022/05/21 05:02:21;;;;;;;7.17;3.80;;;;;;;20.09;81.24;100301.41;1686701;84;21055;-61
2022/05/21 05:04:49;;;;;;;10.58;4.22;;;;;;;20.09;80.39;100306.16;1688592;83;21031;-62
2022/05/21 05:07:19;;;;;;;11.50;4.15;;;;;;;20.27;80.98;100301.09;1689293;84;21115;-62
2022/05/21 05:09:46;;;;;;;6.15;4.03;;;;;;;20.42;80.63;100292.40;1689853;84;21043;-61
2022/05/21 05:12:13;;;;;;;5.95;3.65;;;;;;;20.51;79.87;100288.13;1688968;84;21568;-62
2022/05/21 05:14:42;;;;;;;13.03;3.80;;;;;;;20.67;78.85;100286.30;1686546;84;21091;-62
2022/05/21 05:17:13;;;;;;;10.18;3.70;;;;;;;20.76;75.76;100292.00;1688449;84;21051;-62
2022/05/21 05:19:40;;;;;;;8.75;3.80;;;;;;;20.98;75.93;100293.00;1692000;83;21011;-62
2022/05/21 05:22:09;;;;;;;8.43;3.55;;;;;;;21.27;74.83;100280.81;1680538;83;21039;-62
2022/05/21 05:24:37;;;;;;;8.50;3.30;;;;;;;21.50;72.54;100283.95;1689796;84;21523;-62
2022/05/21 05:27:06;;;;;;;4.53;3.30;;;;;;;21.70;71.00;100286.02;1691235;84;21072;-61
2022/05/21 05:29:34;;;;;;;7.03;3.45;;;;;;;21.72;70.59;100281.45;1689306;84;21000;-61
2022/05/21 05:32:01;;;;;;;9.55;3.37;;;;;;;21.91;70.22;100283.13;1687381;84;21539;-62
2022/05/21 05:34:28;;;;;;;7.47;3.45;;;;;;;21.96;69.08;100277.80;1689222;84;21019;-61
2022/05/21 05:36:55;;;;;;;11.12;3.40;;;;;;;22.32;69.67;100262.61;1659074;86;21513;-61
2022/05/21 05:39:23;;;;;;;7.22;3.30;;;;;;;22.50;68.80;100269.16;1684890;83;21018;-61
2022/05/21 05:41:51;;;;;;;7.92;3.60;;;;;;;22.39;68.01;100263.67;1711962;83;21546;-61
2022/05/21 05:44:20;;;;;;;7.28;3.30;;;;;;;22.40;68.05;100266.61;1704615;83;21060;-62
2022/05/21 05:46:48;;;;;;;14.53;3.30;;;;;;;22.37;68.01;100263.81;1713642;83;21011;-62
2022/05/21 05:49:15;;;;;;;6.15;3.00;;;;;;;22.23;67.33;100265.61;1710047;82;21017;-62
2022/05/21 05:51:43;;;;;;;6.90;3.37;;;;;;;22.31;68.79;100275.39;1683802;84;21062;-62
2022/05/21 05:54:10;;;;;;;6.90;3.20;;;;;;;22.31;66.68;100263.59;1682543;84;21018;-62
2022/05/21 05:56:38;;;;;;;8.75;3.67;;;;;;;22.51;66.04;100265.09;1709426;83;21011;-62
2022/05/21 06:02:57;;;;;;;6.55;3.10;;;;;;;22.94;65.02;100262.12;1695280;84;21038;-62
2022/05/21 06:04:20;;;;;;;7.03;3.02;;;;;;;23.17;64.47;100266.88;1692560;83;21096;-61
2022/05/21 06:06:48;;;;;;;6.30;2.90;;;;;;;23.45;64.07;100268.02;1696969;84;21038;-62
2022/05/21 06:09:15;;;;;;;6.65;2.72;;;;;;;23.54;63.09;100267.06;1696851;84;21023;-62
2022/05/21 06:11:45;;;;;;;7.17;3.80;;;;;;;23.46;63.76;100263.94;1696867;84;21074;-61
2022/05/21 06:14:14;;;;;;;6.17;2.90;;;;;;;23.53;63.86;100264.11;1696975;84;21097;-62
2022/05/21 06:16:41;;;;;;;5.80;3.00;;;;;;;23.51;63.63;100255.56;1696809;84;21086;-62
2022/05/21 06:19:09;;;;;;;9.73;3.00;;;;;;;23.36;64.98;100255.34;1697322;84;21101;-62
2022/05/21 06:21:36;;;;;;;6.97;3.27;;;;;;;23.44;66.02;100249.28;1696911;84;21082;-61
2022/05/21 06:24:04;;;;;;;5.28;3.10;;;;;;;23.44;66.60;100245.34;1697164;84;21054;-61
2022/05/21 06:26:32;;;;;;;11.18;3.10;;;;;;;23.37;67.06;100243.34;1696852;83;21581;-61
2022/05/21 06:29:01;;;;;;;8.90;2.90;;;;;;;23.37;67.13;100238.09;1696984;83;21046;-61
2022/05/21 06:31:28;;;;;;;7.22;2.83;;;;;;;23.40;64.75;100231.72;1697272;84;21162;-61
2022/05/21 06:33:55;;;;;;;8.83;3.52;;;;;;;23.51;65.53;100222.73;1697188;84;21027;-61
2022/05/21 06:36:23;;;;;;;8.63;3.12;;;;;;;23.48;65.13;100220.41;1697342;84;21089;-62
2022/05/21 06:38:51;;;;;;;8.08;3.10;;;;;;;23.48;64.36;100222.56;1696818;84;21498;-62
2022/05/21 06:41:18;;;;;;;5.03;2.95;;;;;;;23.76;63.50;100224.46;1696472;84;21077;-62
2022/05/21 06:43:45;;;;;;;8.78;3.20;;;;;;;23.88;64.24;100226.30;1696319;84;21503;-61
2022/05/21 06:46:13;;;;;;;6.90;3.15;;;;;;;23.79;63.25;100212.33;1696661;84;21089;-61
2022/05/21 06:48:40;;;;;;;9.63;3.30;;;;;;;23.83;62.15;100213.34;1696316;84;21150;-62
2022/05/21 06:51:07;;;;;;;6.33;2.90;;;;;;;24.12;63.70;100204.98;1696329;83;21515;-61
2022/05/21 06:53:36;;;;;;;9.18;3.30;;;;;;;24.25;62.04;100192.66;1696361;84;21586;-61
2022/05/21 06:56:15;;;;;;;7.35;2.98;;;;;;;24.36;61.83;100197.09;1696235;84;21082;-62
2022/05/21 06:58:44;;;;;;;9.90;3.10;;;;;;;24.65;61.86;100184.44;1696574;84;21084;-62
2022/05/21 07:01:11;;;;;;;11.57;3.42;;;;;;;25.10;61.45;100186.95;1696275;84;21023;-62
2022/05/21 07:03:38;;;;;;;4.60;2.65;;;;;;;25.49;60.28;100184.36;1696416;83;21081;-62
2022/05/21 07:08:52;;;;;;;8.75;2.95;;;;;;;25.82;58.33;100182.03;1674670;86;21060;-62
2022/05/21 07:11:20;;;;;;;8.65;3.05;;;;;;;25.57;58.90;100177.72;1685216;83;21602;-62
2022/05/21 07:13:47;;;;;;;8.60;3.05;;;;;;;25.40;57.17;100182.74;1687047;84;21123;-62
2022/05/21 07:16:15;;;;;;;7.08;3.22;;;;;;;25.35;57.61;100170.59;1689582;84;21032;-62
2022/05/21 07:18:42;;;;;;;8.13;3.30;;;;;;;25.62;59.10;100175.87;1689086;84;21082;-62
2022/05/21 07:21:15;;;;;;;9.08;3.05;;;;;;;25.67;56.90;100170.07;1700145;84;21109;-61
2022/05/21 07:23:42;;;;;;;6.17;3.10;;;;;;;25.73;56.95;100172.01;1726489;83;21070;-62
2022/05/21 07:26:09;;;;;;;7.95;3.27;;;;;;;25.85;56.81;100163.20;1697284;84;21034;-62
2022/05/21 07:28:37;;;;;;;9.20;3.12;;;;;;;26.04;56.10;100160.64;1697009;84;21031;-61
2022/05/21 07:31:05;;;;;;;7.60;3.17;;;;;;;25.96;55.85;100144.38;1697030;83;21066;-62
2022/05/21 07:33:32;;;;;;;6.45;3.37;;;;;;;26.00;56.11;100151.44;1697375;83;21074;-61
2022/05/21 07:35:59;;;;;;;8.28;3.37;;;;;;;26.33;56.78;100150.14;1697134;84;21050;-62
2022/05/21 07:38:29;;;;;;;6.17;3.10;;;;;;;26.41;55.91;100155.03;1697404;84;21086;-62
2022/05/21 07:40:56;;;;;;;5.12;3.10;;;;;;;26.37;57.16;100153.25;1697103;84;21137;-62
2022/05/21 07:43:27;;;;;;;5.62;2.90;;;;;;;26.58;57.50;100152.09;1697176;84;21550;-62
2022/05/21 07:45:55;;;;;;;5.80;3.00;;;;;;;26.70;58.56;100153.79;1696906;84;21035;-62
2022/05/21 07:48:22;;;;;;;7.78;3.10;;;;;;;26.57;58.81;100144.31;1697322;84;21137;-62
2022/05/21 07:50:54;;;;;;;4.53;3.20;;;;;;;26.61;58.11;100139.53;1697103;83;21018;-61
2022/05/21 07:53:25;;;;;;;9.38;3.45;;;;;;;26.79;59.60;100141.30;1696755;84;21089;-62
2022/05/21 07:55:54;;;;;;;6.17;3.00;;;;;;;26.89;56.28;100136.56;1697308;84;21650;-62
2022/05/21 07:58:25;;;;;;;7.50;3.62;;;;;;;27.02;55.92;100134.59;1697266;84;20988;-62
2022/05/21 08:00:54;;;;;;;12.03;4.15;;;;;;;26.95;55.87;100132.37;1697334;83;21069;-62
2022/05/21 08:03:23;;;;;;;8.38;3.55;;;;;;;26.93;56.80;100129.91;1697238;84;21101;-61
2022/05/21 08:05:53;;;;;;;6.47;3.27;;;;;;;26.93;56.91;100121.17;1697205;84;21541;-62
2022/05/21 08:08:23;;;;;;;8.48;3.72;;;;;;;27.05;55.60;100121.02;1697276;84;21037;-62
2022/05/21 08:10:51;;;;;;;12.63;3.75;;;;;;;27.26;56.25;100121.59;1697360;83;21121;-62
2022/05/21 08:13:19;;;;;;;7.03;3.20;;;;;;;27.49;56.54;100125.89;1697270;83;21038;-61
2022/05/21 08:15:46;;;;;;;8.60;3.17;;;;;;;27.47;57.56;100121.30;1697255;84;21066;-62
2022/05/21 08:18:14;;;;;;;11.15;3.70;;;;;;;27.53;57.12;100117.91;1696983;84;21066;-62
2022/05/21 08:20:42;;;;;;;6.42;3.20;;;;;;;27.57;54.85;100117.36;1693378;83;21063;-62
2022/05/21 08:28:49;;;;;;;9.75;3.27;;;;;;;27.44;55.72;100119.86;1740333;82;21068;-61
2022/05/21 08:31:17;;;;;;;7.25;3.17;;;;;;;27.94;56.71;100111.52;1740457;81;21083;-60
2022/05/21 08:33:46;;;;;;;8.48;3.45;;;;;;;28.09;54.75;100110.61;1740390;82;21143;-61
2022/05/21 08:36:13;;;;;;;7.80;3.33;;;;;;;28.37;54.47;100113.25;1740511;82;21040;-61
2022/05/21 08:38:41;;;;;;;9.10;3.40;;;;;;;28.30;54.83;100109.73;1740526;82;21547;-61
2022/05/21 08:41:31;;;;;;;6.53;2.92;;;;;;;28.15;52.94;100104.03;1740500;82;21532;-62
2022/05/21 08:44:15;;;;;;;6.10;3.02;;;;;;;28.32;55.20;100101.91;1740463;82;21099;-61
2022/05/21 08:46:45;;;;;;;;;;;;;;;28.35;53.64;100102.05;1743062;81;21497;-61
2022/05/21 08:49:38;;;;;;;8.70;3.22;;;;;;;28.27;54.41;100113.59;1740367;82;20107;-61
2022/05/21 08:52:42;;;;;;;5.28;3.10;;;;;;;28.36;53.53;100107.63;1732268;82;20988;-61
2022/05/21 08:55:20;;;;;;;6.60;3.10;;;;;;;28.30;53.26;100113.70;1724823;82;20996;-61
2022/05/21 08:57:51;;;;;;;8.18;3.30;;;;;;;28.00;54.46;100109.91;1727280;82;21517;-62
2022/05/21 09:00:27;;;;;;;7.22;2.95;;;;;;;28.27;54.94;100098.22;1730689;82;21520;-61
2022/05/21 09:02:54;;;;;;;7.72;3.30;;;;;;;28.36;53.81;100095.72;1728970;82;21055;-61
2022/05/21 09:05:24;;;;;;;9.05;3.00;;;;;;;28.34;54.53;100087.97;1725087;82;21499;-62
2022/05/21 09:08:12;;;;;;;9.60;3.25;;;;;;;28.14;53.79;100093.16;1726685;82;21396;-62
2022/05/21 09:11:26;;;;;;;5.50;3.40;;;;;;;28.34;52.77;100093.77;1740117;82;20993;-62
2022/05/21 09:14:10;;;;;;;8.95;3.37;;;;;;;28.75;54.22;100091.19;1740374;82;21109;-62
2022/05/21 09:16:57;;;;;;;10.30;3.50;;;;;;;29.01;53.84;100083.53;1740295;82;21025;-61
2022/05/21 09:19:36;;;;;;;8.75;3.40;;;;;;;28.93;50.54;100075.25;1740405;81;21063;-61
2022/05/21 09:22:09;;;;;;;13.35;3.20;;;;;;;28.95;52.64;100079.36;1749001;81;21048;-61
2022/05/21 09:24:51;;;;;;;6.85;3.50;;;;;;;28.90;51.77;100072.50;1753273;81;21563;-61
2022/05/21 09:27:34;;;;;;;10.88;3.83;;;;;;;28.87;51.36;100082.15;1753404;82;21312;-61
2022/05/21 09:30:27;;;;;;;7.58;3.50;;;;;;;28.88;51.83;100084.31;1748833;82;21566;-61
2022/05/21 09:33:01;;;;;;;6.70;3.12;;;;;;;28.73;51.72;100074.68;1753411;82;21610;-62
2022/05/21 09:35:33;;;;;;;5.80;3.00;;;;;;;28.91;50.78;100063.55;1753699;82;21031;-61
2022/05/21 09:38:13;;;;;;;8.73;3.27;;;;;;;29.21;51.55;100065.88;1753294;82;21570;-62
2022/05/21 09:40:41;;;;;;;12.25;3.40;;;;;;;29.12;51.40;100069.23;1753624;82;21069;-62
2022/05/21 09:46:31;;;;;;;9.83;3.70;;;;;;;29.18;50.97;100060.16;1753534;82;21122;-62
2022/05/21 09:49:24;;;;;;;8.35;3.37;;;;;;;29.03;50.07;100073.04;1751446;82;21094;-62
2022/05/21 09:52:02;;;;;;;8.15;3.20;;;;;;;28.99;51.36;100061.72;1740584;82;21444;-62
2022/05/21 09:54:37;;;;;;;8.23;3.05;;;;;;;29.07;51.68;100061.53;1737081;80;21488;-62
2022/05/21 09:57:05;;;;;;;7.80;3.25;;;;;;;29.31;51.19;100067.64;1738304;82;21035;-62
2022/05/21 09:59:34;;;;;;;12.95;3.55;;;;;;;29.24;49.96;100062.00;1740708;82;21028;-62
2022/05/21 10:02:19;;;;;;;7.33;3.35;;;;;;;29.38;49.86;100055.73;1739158;82;21061;-62
2022/05/21 10:04:53;;;;;;;6.78;3.47;;;;;;;29.63;50.93;100043.20;1735779;82;21011;-62
2022/05/21 10:13:22;;;;;;;8.35;3.55;;;;;;;29.83;49.13;100039.25;1724358;82;21047;-62
2022/05/21 10:16:01;;;;;;;6.60;3.70;;;;;;;29.65;49.54;100029.23;1740563;82;21082;-62
2022/05/21 10:18:43;;;;;;;10.80;3.40;;;;;;;29.83;49.35;100028.13;1740666;82;21804;-62
2022/05/21 10:21:41;;;;;;;6.97;3.45;;;;;;;29.86;49.05;100025.05;1738129;82;21038;-62
2022/05/21 10:24:16;;;;;;;7.37;3.55;;;;;;;29.94;48.80;100023.50;1727017;82;21040;-61
2022/05/21 10:27:02;;;;;;;7.60;3.30;;;;;;;30.06;49.50;100022.88;1726968;82;21032;-62
2022/05/21 10:29:57;;;;;;;10.50;3.62;;;;;;;29.90;48.95;100017.49;1725611;82;20984;-62
2022/05/21 10:32:52;;;;;;;8.15;3.35;;;;;;;30.29;50.15;100015.77;1727734;82;21000;-62
2022/05/21 10:35:46;;;;;;;8.10;3.58;;;;;;;30.50;49.39;100014.20;1727243;82;21036;-62
2022/05/21 10:39:01;;;;;;;8.85;3.30;;;;;;;30.53;48.75;100019.08;1723834;82;21016;-62
2022/05/21 10:42:08;;;;;;;7.85;3.25;;;;;;;31.06;48.91;100010.05;1727411;82;21449;-62
2022/05/21 10:44:50;;;;;;;11.68;3.60;;;;;;;30.78;46.71;100011.73;1726848;82;21012;-62
2022/05/21 10:47:53;;;;;;;4.50;3.42;;;;;;;30.60;47.61;100000.48;1728151;82;21024;-62
2022/05/21 10:50:32;;;;;;;8.28;3.50;;;;;;;30.58;47.34;99994.56;1723180;81;21063;-62
2022/05/21 10:53:38;;;;;;;7.97;3.40;;;;;;;30.53;47.72;99994.36;1700433;82;21020;-61
2022/05/21 10:56:45;;;;;;;9.33;3.33;;;;;;;30.62;47.42;99994.92;1727517;82;21016;-61
2022/05/21 10:59:36;;;;;;;6.30;3.35;;;;;;;30.91;46.95;99981.11;1727919;82;20981;-61
2022/05/21 11:02:43;;;;;;;8.03;3.17;;;;;;;30.61;47.79;99990.66;1667832;85;21007;-61
2022/05/21 11:05:57;;;;;;;7.45;2.90;;;;;;;30.45;47.43;99983.46;1725934;82;21036;-61
2022/05/21 11:08:34;;;;;;;;;;;;;;;30.80;48.50;99979.61;1730898;82;21040;-61
2022/05/21 11:11:37;;;;;;;6.87;3.33;;;;;;;30.98;47.68;99980.25;1726812;82;20135;-61
2022/05/21 11:14:23;;;;;;;;;;;;;;;30.74;47.80;99968.83;1730093;82;21547;-61
2022/05/21 11:17:00;;;;;;;4.65;3.10;;;;;;;30.76;48.38;99965.96;1727716;82;20174;-61
2022/05/21 11:19:48;;;;;;;12.47;3.67;;;;;;;31.07;47.73;99957.71;1726335;82;21052;-61
2022/05/21 11:22:46;;;;;;;7.25;3.55;;;;;;;31.10;47.89;99950.13;1732958;81;21063;-62
2022/05/21 11:25:28;;;;;;;7.72;3.45;;;;;;;31.27;47.94;99945.08;1741593;81;21047;-61
2022/05/21 11:28:15;;;;;;;6.90;3.40;;;;;;;31.39;46.83;99949.17;1735002;82;21004;-61
2022/05/21 11:30:45;;;;;;;9.23;3.33;;;;;;;31.62;48.68;99936.59;1740334;82;21492;-62
2022/05/21 11:38:51;;;;;;;5.55;3.60;;;;;;;30.53;48.17;99930.09;1652903;86;21128;-61
2022/05/21 11:41:30;;;;;;;5.87;3.80;;;;;;;30.62;48.67;99933.34;1724798;83;21047;-62
2022/05/21 11:47:18;;;;;;;6.30;3.60;;;;;;;30.92;49.36;99923.45;1724730;83;21047;-61
2022/05/21 11:50:01;;;;;;;;;;;;;;;30.65;48.65;99928.11;1727026;83;21043;-61
2022/05/21 11:52:33;;;;;;;8.68;4.45;;;;;;;30.51;48.24;99924.70;1725241;83;20136;-61
2022/05/21 11:55:14;;;;;;;7.63;3.90;;;;;;;30.89;48.19;99911.94;1731610;82;21003;-61
2022/05/21 11:57:55;;;;;;;12.03;4.37;;;;;;;31.20;48.60;99917.71;1739926;82;21075;-61
2022/05/21 12:00:27;;;;;;;8.48;3.85;;;;;;;31.47;48.06;99907.69;1741880;82;21058;-62
2022/05/21 12:03:02;;;;;;;6.58;3.85;;;;;;;31.78;47.43;99906.46;1737727;82;21538;-61
2022/05/21 12:05:38;;;;;;;9.40;4.08;;;;;;;31.59;46.05;99910.94;1737513;81;21488;-61
2022/05/21 12:08:27;;;;;;;5.62;3.45;;;;;;;31.63;47.15;99906.31;1740751;82;21477;-61
2022/05/21 12:11:25;;;;;;;7.62;3.30;;;;;;;31.56;45.70;99909.55;1737452;82;21484;-62
2022/05/21 12:14:25;;;;;;;12.00;3.95;;;;;;;31.51;45.01;99898.77;1741023;82;21079;-61
2022/05/21 12:16:59;;;;;;;8.50;3.90;;;;;;;31.24;45.01;99888.32;1737509;81;21464;-61
2022/05/21 12:19:56;;;;;;;8.25;4.45;;;;;;;30.41;46.34;99888.50;1738236;82;20964;-61
2022/05/21 12:22:40;;;;;;;9.45;3.90;;;;;;;30.48;48.24;99892.75;1751113;82;21071;-61
2022/05/21 12:25:17;;;;;;;8.40;4.58;;;;;;;30.34;48.55;99886.70;1754439;82;21020;-61
2022/05/21 12:27:53;;;;;;;6.67;3.65;;;;;;;30.06;47.32;99881.69;1736393;80;21063;-61